Time;durP1;ratioP1;P1;durP2;ratioP2;P2;SDS_P1;SDS_P2;PMS_P1;PMS_P2;Temp;Humidity;BMP_temperature;BMP_pressure;BME280_temperature;BME280_humidity;BME280_pressure;Samples;Min_cycle;Max_cycle;Signal;HPM_P1;HPM_P2
2022/06/25 00:00:57;;;;;;;7.45;5.75;;;;;;;16.46;100.00;100467.20;1743262;82;21247;-88
2022/06/25 00:03:25;;;;;;;8.30;5.80;;;;;;;16.46;100.00;100455.88;1743566;82;21046;-88
2022/06/25 00:05:52;;;;;;;6.15;5.55;;;;;;;16.47;100.00;100453.55;1743291;82;21061;-89
2022/06/25 00:08:19;;;;;;;6.15;5.55;;;;;;;16.48;100.00;100460.46;1743107;82;22017;-89
2022/06/25 00:10:46;;;;;;;6.22;5.58;;;;;;;16.49;100.00;100456.38;1743683;82;21113;-88
2022/06/25 00:13:13;;;;;;;5.90;5.35;;;;;;;16.49;100.00;100458.17;1743158;82;21135;-88
2022/06/25 00:15:40;;;;;;;7.70;5.87;;;;;;;16.49;100.00;100464.73;1743586;82;21495;-90
2022/06/25 00:18:07;;;;;;;5.65;5.17;;;;;;;16.45;100.00;100462.11;1743191;82;21120;-89
2022/06/25 00:20:35;;;;;;;6.33;4.78;;;;;;;16.41;100.00;100470.80;1736469;82;21617;-90
2022/06/25 00:23:02;;;;;;;4.87;4.47;;;;;;;16.40;100.00;100470.46;1713572;83;21043;-91
2022/06/25 00:25:31;;;;;;;4.72;4.33;;;;;;;16.39;100.00;100473.56;1713488;83;21280;-89
2022/06/25 00:27:58;;;;;;;5.10;4.67;;;;;;;16.40;100.00;100473.90;1713320;83;20985;-89
2022/06/25 00:30:25;;;;;;;4.58;4.22;;;;;;;16.42;100.00;100475.08;1713472;83;20996;-89
2022/06/25 00:32:53;;;;;;;5.90;5.30;;;;;;;16.44;100.00;100473.59;1709895;83;21024;-89
2022/06/25 00:35:20;;;;;;;8.33;5.87;;;;;;;16.46;100.00;100472.95;1713485;83;21016;-88
2022/06/25 00:37:47;;;;;;;5.65;5.15;;;;;;;16.50;100.00;100472.96;1713813;83;21141;-90
2022/06/25 00:40:14;;;;;;;5.55;5.05;;;;;;;16.52;100.00;100481.52;1713410;83;21573;-89
2022/06/25 00:42:44;;;;;;;6.53;5.67;;;;;;;16.53;100.00;100483.98;1713644;83;20973;-89
2022/06/25 00:45:12;;;;;;;6.05;5.28;;;;;;;16.55;100.00;100485.97;1713128;83;21012;-89
2022/06/25 00:47:41;;;;;;;7.95;5.17;;;;;;;16.58;100.00;100492.71;1713563;83;21016;-89
2022/06/25 00:50:09;;;;;;;8.15;4.87;;;;;;;16.60;100.00;100486.81;1713214;83;22048;-89
2022/06/25 00:52:41;;;;;;;5.83;5.08;;;;;;;16.62;100.00;100487.95;1713746;83;20938;-89
2022/06/25 00:55:12;;;;;;;5.08;4.65;;;;;;;16.64;100.00;100489.95;1710693;83;20962;-89
2022/06/25 00:57:43;;;;;;;6.95;5.20;;;;;;;16.66;100.00;100491.94;1685930;83;22332;-89
2022/06/25 01:00:21;;;;;;;6.70;6.00;;;;;;;16.66;100.00;100484.05;1686452;84;21528;-89
2022/06/25 01:02:47;;;;;;;9.43;6.40;;;;;;;16.67;100.00;100490.45;1685949;85;21287;-89
2022/06/25 01:05:16;;;;;;;7.62;6.72;;;;;;;16.67;100.00;100488.30;1686464;85;21058;-89
2022/06/25 01:07:48;;;;;;;6.62;5.83;;;;;;;16.66;100.00;100495.38;1686009;84;21026;-89
2022/06/25 01:10:17;;;;;;;8.90;6.35;;;;;;;16.65;100.00;100498.98;1686553;84;21097;-89
2022/06/25 01:12:45;;;;;;;6.50;5.90;;;;;;;16.63;100.00;100491.73;1686395;84;21136;-90
2022/06/25 01:15:18;;;;;;;7.35;6.20;;;;;;;16.63;100.00;100502.75;1686285;84;21624;-90
2022/06/25 01:17:51;;;;;;;6.33;5.72;;;;;;;16.63;100.00;100504.06;1686116;84;38515;-88
2022/06/25 01:20:23;;;;;;;5.55;5.05;;;;;;;16.62;100.00;100497.16;1686056;84;21694;-90
2022/06/25 01:22:53;;;;;;;6.95;5.67;;;;;;;16.61;100.00;100498.98;1686163;84;21066;-89
2022/06/25 01:25:20;;;;;;;6.58;5.97;;;;;;;16.61;100.00;100509.49;1686292;85;21066;-91
2022/06/25 01:27:48;;;;;;;6.85;6.25;;;;;;;16.59;100.00;100518.02;1686209;84;21191;-92
2022/06/25 01:30:16;;;;;;;6.65;6.05;;;;;;;16.58;100.00;100517.68;1686190;84;21209;-89
2022/06/25 01:32:43;;;;;;;7.42;6.60;;;;;;;16.56;100.00;100520.48;1686511;85;21066;-89
2022/06/25 01:35:10;;;;;;;6.60;6.00;;;;;;;16.55;100.00;100514.04;1686461;84;21031;-89
2022/06/25 01:37:38;;;;;;;7.45;6.10;;;;;;;16.52;100.00;100511.74;1686361;84;21022;-89
2022/06/25 01:40:06;;;;;;;7.22;6.47;;;;;;;16.50;100.00;100518.95;1686127;85;21167;-89
2022/06/25 01:45:20;;;;;;;6.28;5.67;;;;;;;16.48;100.00;100511.70;1686132;84;21574;-89
2022/06/25 01:47:47;;;;;;;6.60;6.00;;;;;;;16.47;100.00;100523.20;1686280;85;21055;-89
2022/06/25 01:50:15;;;;;;;7.20;5.97;;;;;;;16.46;100.00;100526.83;1686339;84;21053;-89
2022/06/25 01:52:45;;;;;;;8.40;5.62;;;;;;;16.44;100.00;100527.47;1686300;84;21183;-89
2022/06/25 01:55:13;;;;;;;8.85;5.35;;;;;;;16.37;100.00;100527.26;1686239;85;21548;-89
2022/06/25 01:57:42;;;;;;;6.25;5.75;;;;;;;16.31;100.00;100527.89;1686274;84;21054;-89
2022/06/25 02:00:14;;;;;;;6.80;5.95;;;;;;;16.26;100.00;100530.97;1662486;85;21014;-89
2022/06/25 02:02:41;;;;;;;;;;;;;;;16.24;100.00;100533.77;1688811;85;20963;-89
2022/06/25 02:05:11;;;;;;;9.03;6.00;;;;;;;16.21;100.00;100533.25;1722087;83;21161;-89
2022/06/25 02:07:39;;;;;;;7.45;6.75;;;;;;;16.17;100.00;100539.77;1715903;83;21009;-89
2022/06/25 02:10:08;;;;;;;7.78;7.00;;;;;;;16.12;100.00;100537.61;1713436;83;21084;-89
2022/06/25 02:12:35;;;;;;;8.10;7.28;;;;;;;16.09;100.00;100539.25;1713692;83;21001;-89
2022/06/25 02:15:05;;;;;;;8.78;7.87;;;;;;;16.07;100.00;100544.63;1713663;83;21100;-88
2022/06/25 02:17:33;;;;;;;11.08;7.78;;;;;;;16.05;100.00;100547.92;1713382;83;21850;-89
2022/06/25 02:20:00;;;;;;;11.80;8.15;;;;;;;16.04;100.00;100550.20;1713393;83;21044;-88
2022/06/25 02:22:27;;;;;;;10.23;8.30;;;;;;;16.04;100.00;100555.46;1713309;83;21498;-88
2022/06/25 02:24:57;;;;;;;11.78;8.48;;;;;;;16.04;100.00;100555.46;1713081;83;21037;-88
2022/06/25 02:27:24;;;;;;;9.85;8.45;;;;;;;16.02;100.00;100560.53;1696201;83;21041;-88
2022/06/25 02:29:52;;;;;;;10.10;8.70;;;;;;;15.97;100.00;100562.30;1696149;84;21262;-88
2022/06/25 02:32:19;;;;;;;11.00;9.20;;;;;;;15.96;100.00;100556.70;1696390;84;20990;-89
2022/06/25 02:34:47;;;;;;;10.63;9.50;;;;;;;15.97;100.00;100557.05;1696432;84;21523;-89
2022/06/25 02:37:14;;;;;;;11.83;9.58;;;;;;;15.99;100.00;100565.58;1696254;83;21516;-88
2022/06/25 02:39:42;;;;;;;10.35;8.53;;;;;;;16.01;100.00;100561.00;1696115;84;21038;-89
2022/06/25 02:42:10;;;;;;;11.48;9.23;;;;;;;16.03;100.00;100563.00;1696142;84;21826;-89
2022/06/25 02:44:38;;;;;;;15.28;9.93;;;;;;;16.05;100.00;100569.41;1696000;84;20962;-91
2022/06/25 02:47:05;;;;;;;11.28;9.58;;;;;;;16.08;100.00;100566.48;1696403;83;20981;-89
2022/06/25 02:49:35;;;;;;;10.32;9.20;;;;;;;16.09;100.00;100571.58;1691538;83;21014;-89
2022/06/25 02:52:03;;;;;;;11.70;9.53;;;;;;;16.12;100.00;100570.44;1696181;84;21556;-89
2022/06/25 02:54:30;;;;;;;11.50;10.23;;;;;;;16.16;100.00;100573.58;1696185;83;22251;-89
2022/06/25 02:59:45;;;;;;;14.63;10.23;;;;;;;16.21;100.00;100573.47;1696201;83;21006;-89
2022/06/25 03:02:12;;;;;;;13.00;10.45;;;;;;;16.26;100.00;100582.20;1696499;83;21564;-89
2022/06/25 03:04:41;;;;;;;11.33;10.15;;;;;;;16.31;100.00;100577.80;1691860;83;21026;-89
2022/06/25 03:07:10;;;;;;;11.15;10.05;;;;;;;16.36;100.00;100579.47;1696282;84;21589;-89
2022/06/25 03:09:39;;;;;;;13.75;10.80;;;;;;;16.39;100.00;100585.23;1696368;84;21038;-91
2022/06/25 03:12:07;;;;;;;15.70;10.38;;;;;;;16.45;100.00;100590.88;1696064;84;21060;-90
2022/06/25 03:14:35;;;;;;;11.43;9.83;;;;;;;16.49;100.00;100592.20;1662504;85;21061;-90
2022/06/25 03:17:04;;;;;;;10.53;9.50;;;;;;;16.54;100.00;100591.27;1708079;83;20983;-89
2022/06/25 03:19:32;;;;;;;11.80;8.95;;;;;;;16.59;100.00;100592.09;1704782;84;21122;-89
2022/06/25 03:22:05;;;;;;;12.10;10.10;;;;;;;16.62;100.00;100590.48;1704702;84;21029;-89
2022/06/25 03:24:32;;;;;;;12.07;9.98;;;;;;;16.69;100.00;100591.03;1708111;84;21005;-89
2022/06/25 03:26:59;;;;;;;10.85;9.85;;;;;;;16.76;100.00;100594.34;1741793;82;21501;-89
2022/06/25 03:29:27;;;;;;;15.13;11.05;;;;;;;16.82;100.00;100598.48;1743284;81;21086;-89
2022/06/25 03:31:54;;;;;;;13.22;10.00;;;;;;;16.87;100.00;100600.15;1743487;82;21238;-89
2022/06/25 03:34:25;;;;;;;11.93;10.72;;;;;;;16.92;100.00;100603.63;1734687;81;21030;-90
2022/06/25 03:36:53;;;;;;;11.40;10.30;;;;;;;16.97;100.00;100610.58;1743748;81;21034;-89
2022/06/25 03:39:21;;;;;;;13.65;10.63;;;;;;;17.02;100.00;100617.48;1743218;81;21074;-89
2022/06/25 03:41:49;;;;;;;14.53;11.68;;;;;;;17.08;100.00;100624.44;1743919;82;21089;-89
2022/06/25 03:44:17;;;;;;;12.45;11.25;;;;;;;17.14;100.00;100628.59;1732770;82;21121;-90
2022/06/25 03:46:45;;;;;;;12.93;10.90;;;;;;;17.24;100.00;100632.40;1743403;81;21033;-90
2022/06/25 03:49:12;;;;;;;12.03;10.82;;;;;;;17.31;100.00;100638.67;1743368;81;21025;-89
2022/06/25 03:51:51;;;;;;;12.73;11.40;;;;;;;17.39;100.00;100643.63;1742225;81;21014;-90
2022/06/25 03:54:19;;;;;;;13.70;11.63;;;;;;;17.44;100.00;100638.22;1743522;81;20999;-90
2022/06/25 03:56:46;;;;;;;14.00;12.58;;;;;;;17.54;100.00;100649.11;1743407;81;21126;-89
2022/06/25 03:59:14;;;;;;;15.10;13.15;;;;;;;17.62;100.00;100644.68;1742392;82;21062;-89
2022/06/25 04:01:41;;;;;;;13.32;12.13;;;;;;;17.69;100.00;100647.98;1737452;82;21010;-89
2022/06/25 04:04:08;;;;;;;13.68;12.28;;;;;;;17.71;100.00;100652.09;1739979;82;21568;-89
2022/06/25 04:06:35;;;;;;;16.77;13.53;;;;;;;17.74;100.00;100654.92;1736787;82;21002;-89
2022/06/25 04:09:04;;;;;;;14.25;12.82;;;;;;;17.78;100.00;100657.55;1726947;82;21301;-89
2022/06/25 04:11:32;;;;;;;15.98;14.43;;;;;;;17.80;100.00;100655.59;1732449;82;21019;-89
2022/06/25 04:14:00;;;;;;;16.82;13.95;;;;;;;17.89;100.00;100660.36;1735868;82;21018;-89
2022/06/25 04:16:27;;;;;;;17.67;15.58;;;;;;;17.99;100.00;100665.53;1728633;82;21018;-90
2022/06/25 04:18:56;;;;;;;18.82;15.00;;;;;;;18.08;100.00;100668.00;1736358;82;21232;-89
2022/06/25 04:21:25;;;;;;;16.55;14.18;;;;;;;18.16;100.00;100667.17;1708793;82;21103;-90
2022/06/25 04:23:52;;;;;;;17.25;15.32;;;;;;;18.26;100.00;100669.67;1684954;84;21887;-90
2022/06/25 04:26:19;;;;;;;17.02;15.20;;;;;;;18.34;100.00;100659.12;1714954;83;21123;-89
2022/06/25 04:29:04;;;;;;;16.55;14.85;;;;;;;18.41;100.00;100655.31;1714579;83;21078;-89
2022/06/25 04:31:37;;;;;;;17.57;15.13;;;;;;;18.49;100.00;100651.34;1715362;83;21058;-89
2022/06/25 04:34:06;;;;;;;16.73;15.15;;;;;;;18.61;100.00;100651.83;1715020;83;21160;-89
2022/06/25 04:36:34;;;;;;;18.25;16.37;;;;;;;18.69;100.00;100660.23;1715073;83;21500;-90
2022/06/25 04:39:03;;;;;;;20.10;17.48;;;;;;;18.73;100.00;100659.73;1711240;83;21075;-90
2022/06/25 04:41:30;;;;;;;18.02;16.02;;;;;;;18.74;100.00;100654.79;1690725;83;20988;-90
2022/06/25 04:44:01;;;;;;;18.40;16.60;;;;;;;18.76;100.00;100654.11;1709086;83;21014;-89
2022/06/25 04:46:31;;;;;;;18.80;16.80;;;;;;;18.82;100.00;100661.03;1715193;83;21152;-90
2022/06/25 04:48:59;;;;;;;;;;;;;;;18.85;100.00;100661.52;1717405;83;20966;-89
2022/06/25 04:51:28;;;;;;;17.45;15.63;;;;;;;18.84;100.00;100665.15;1711506;83;20221;-88
2022/06/25 04:53:57;;;;;;;21.23;17.55;;;;;;;18.86;100.00;100665.81;1715069;83;21080;-91
2022/06/25 04:56:38;;;;;;;21.35;17.57;;;;;;;18.90;100.00;100667.10;1714127;83;21004;-88
2022/06/25 04:59:05;;;;;;;22.02;16.55;;;;;;;18.91;100.00;100674.03;1715140;83;21846;-89
2022/06/25 05:01:52;;;;;;;19.75;17.50;;;;;;;18.89;100.00;100676.00;1714900;83;21070;-88
2022/06/25 05:04:23;;;;;;;21.05;18.67;;;;;;;18.88;100.00;100675.67;1711047;83;21031;-89
2022/06/25 05:06:50;;;;;;;20.70;18.50;;;;;;;18.87;100.00;100677.98;1715095;83;21535;-89
2022/06/25 05:09:17;;;;;;;23.27;18.30;;;;;;;18.88;100.00;100683.59;1714880;83;21062;-90
2022/06/25 05:11:45;;;;;;;24.63;19.05;;;;;;;18.88;100.00;100679.63;1690736;83;21148;-89
2022/06/25 05:14:13;;;;;;;21.45;19.17;;;;;;;18.90;100.00;100684.25;1714992;83;21101;-89
2022/06/25 05:16:40;;;;;;;20.60;18.35;;;;;;;18.92;100.00;100685.42;1690466;82;21077;-89
2022/06/25 05:19:07;;;;;;;24.10;19.00;;;;;;;18.98;100.00;100684.77;1715141;83;21690;-89
2022/06/25 05:21:35;;;;;;;22.95;20.68;;;;;;;19.06;100.00;100687.87;1715411;83;21145;-88
2022/06/25 05:24:05;;;;;;;23.57;19.42;;;;;;;19.18;100.00;100689.64;1715239;83;22001;-90
2022/06/25 05:26:32;;;;;;;21.57;19.12;;;;;;;19.25;100.00;100687.16;1715271;83;21067;-89
2022/06/25 05:28:59;;;;;;;22.45;18.67;;;;;;;19.27;100.00;100693.91;1715124;83;21079;-90
2022/06/25 05:31:27;;;;;;;24.57;20.77;;;;;;;19.40;100.00;100693.36;1715700;83;21549;-90
2022/06/25 05:33:54;;;;;;;24.27;21.80;;;;;;;19.57;100.00;100692.78;1715217;83;21071;-90
2022/06/25 05:36:22;;;;;;;24.37;21.77;;;;;;;19.69;100.00;100691.89;1715521;83;21133;-90
2022/06/25 05:38:50;;;;;;;24.40;21.95;;;;;;;19.78;100.00;100690.05;1715084;83;21044;-89
2022/06/25 05:41:17;;;;;;;24.57;21.68;;;;;;;19.88;100.00;100684.56;1714131;83;21066;-90
2022/06/25 05:43:44;;;;;;;25.05;22.27;;;;;;;20.04;100.00;100691.55;1714087;83;21062;-89
2022/06/25 05:46:11;;;;;;;23.60;21.05;;;;;;;20.12;100.00;100683.07;1714328;83;21590;-89
2022/06/25 05:48:39;;;;;;;24.23;21.62;;;;;;;20.21;100.00;100679.05;1712764;83;21120;-88
2022/06/25 05:51:06;;;;;;;26.02;23.25;;;;;;;20.32;100.00;100681.25;1712961;83;21063;-89
2022/06/25 05:53:34;;;;;;;24.92;22.30;;;;;;;20.42;100.00;100678.38;1709186;81;21122;-89
2022/06/25 05:56:02;;;;;;;24.87;22.02;;;;;;;20.51;100.00;100682.57;1711720;83;21045;-89
2022/06/25 05:58:30;;;;;;;23.30;21.05;;;;;;;20.57;100.00;100682.36;1715156;83;21022;-89
2022/06/25 06:00:57;;;;;;;25.12;21.40;;;;;;;20.57;100.00;100679.23;1698276;82;21089;-89
2022/06/25 06:03:24;;;;;;;23.07;20.88;;;;;;;20.60;100.00;100674.88;1711125;83;21084;-88
2022/06/25 06:05:51;;;;;;;24.47;21.73;;;;;;;20.67;100.00;100677.64;1714138;83;21042;-89
2022/06/25 06:08:18;;;;;;;24.05;21.10;;;;;;;20.77;100.00;100678.23;1710244;83;21023;-89
2022/06/25 06:10:45;;;;;;;23.83;20.75;;;;;;;20.89;100.00;100681.74;1714439;83;21052;-89
2022/06/25 06:13:13;;;;;;;25.75;21.45;;;;;;;20.92;100.00;100678.75;1714354;83;21766;-88
2022/06/25 06:15:40;;;;;;;23.57;19.87;;;;;;;20.91;100.00;100675.77;1707659;83;21051;-88
2022/06/25 06:18:08;;;;;;;22.90;20.57;;;;;;;20.90;100.00;100675.45;1714225;83;21039;-88
2022/06/25 06:20:35;;;;;;;22.70;20.50;;;;;;;20.93;100.00;100680.39;1714094;83;20991;-88
2022/06/25 06:23:03;;;;;;;21.50;19.20;;;;;;;20.99;100.00;100677.52;1714294;83;21064;-88
2022/06/25 06:25:30;;;;;;;23.07;20.52;;;;;;;21.00;100.00;100679.98;1715314;83;21886;-88
2022/06/25 06:27:57;;;;;;;22.93;20.68;;;;;;;21.05;100.00;100680.76;1715822;83;21601;-88
2022/06/25 06:30:24;;;;;;;23.18;20.75;;;;;;;21.15;100.00;100681.80;1715638;82;21554;-90
2022/06/25 06:32:51;;;;;;;21.85;19.62;;;;;;;21.25;100.00;100683.67;1715864;83;21092;-89
2022/06/25 06:35:19;;;;;;;22.70;20.32;;;;;;;21.31;100.00;100684.77;1715918;82;21045;-90
2022/06/25 06:37:46;;;;;;;20.70;18.50;;;;;;;21.30;100.00;100679.95;1715578;83;21238;-89
2022/06/25 06:40:15;;;;;;;21.75;19.62;;;;;;;21.27;100.00;100680.34;1715739;82;20997;-89
2022/06/25 06:42:42;;;;;;;20.27;18.20;;;;;;;21.27;100.00;100680.34;1691266;83;21095;-89
2022/06/25 06:45:11;;;;;;;20.20;18.30;;;;;;;21.36;100.00;100685.83;1703727;82;20970;-89
2022/06/25 06:47:39;;;;;;;21.35;18.87;;;;;;;21.40;100.00;100683.63;1715651;82;21142;-89
2022/06/25 06:50:10;;;;;;;20.30;18.37;;;;;;;21.45;100.00;100686.56;1715960;82;21172;-89
2022/06/25 06:52:36;;;;;;;20.27;18.05;;;;;;;21.44;100.00;100677.78;1715721;83;21076;-90
2022/06/25 06:55:05;;;;;;;20.15;18.07;;;;;;;21.46;100.00;100682.07;1715767;82;21350;-90
2022/06/25 06:57:33;;;;;;;20.30;18.02;;;;;;;21.47;100.00;100681.91;1716121;83;21087;-90
2022/06/25 07:00:04;;;;;;;20.02;17.90;;;;;;;21.49;100.00;100688.33;1715732;82;21689;-90
2022/06/25 07:02:32;;;;;;;20.12;18.15;;;;;;;21.49;100.00;100682.52;1715979;82;21893;-90
2022/06/25 07:04:59;;;;;;;20.45;18.35;;;;;;;21.56;100.00;100674.66;1715616;83;21009;-89
2022/06/25 07:07:26;;;;;;;22.02;17.62;;;;;;;21.61;100.00;100672.81;1715921;82;21518;-90
2022/06/25 07:09:53;;;;;;;19.70;17.73;;;;;;;21.66;100.00;100679.19;1715485;82;21059;-90
2022/06/25 07:12:21;;;;;;;19.42;17.45;;;;;;;21.79;100.00;100682.50;1715709;82;21068;-90
2022/06/25 07:14:48;;;;;;;19.70;17.60;;;;;;;21.99;100.00;100682.66;1716063;83;21166;-90
2022/06/25 07:17:15;;;;;;;18.70;16.75;;;;;;;22.13;100.00;100678.31;1715766;82;21547;-90
2022/06/25 07:19:42;;;;;;;19.45;17.32;;;;;;;22.25;100.00;100676.48;1711564;83;21057;-89
2022/06/25 07:22:09;;;;;;;19.67;17.77;;;;;;;22.33;100.00;100683.79;1686696;83;21028;-90
2022/06/25 07:24:36;;;;;;;18.80;17.15;;;;;;;22.31;100.00;100680.50;1686190;83;20999;-90
2022/06/25 07:27:03;;;;;;;18.80;16.90;;;;;;;22.22;100.00;100677.17;1708373;83;21155;-89
2022/06/25 07:29:31;;;;;;;19.80;17.92;;;;;;;22.19;100.00;100680.72;1691590;84;21038;-90
2022/06/25 07:31:58;;;;;;;18.73;16.93;;;;;;;22.21;100.00;100681.36;1699586;83;21032;-88
2022/06/25 07:34:25;;;;;;;19.73;17.87;;;;;;;22.26;100.00;100684.77;1699530;82;21016;-89
2022/06/25 07:36:52;;;;;;;20.32;18.02;;;;;;;22.31;100.00;100692.95;1699658;83;21181;-88
2022/06/25 07:39:19;;;;;;;18.42;16.40;;;;;;;22.29;100.00;100691.83;1699399;83;21167;-89
2022/06/25 07:41:47;;;;;;;19.35;17.70;;;;;;;22.30;100.00;100694.80;1699409;84;20968;-88
2022/06/25 07:44:14;;;;;;;18.90;17.00;;;;;;;22.32;100.00;100702.03;1699386;82;21024;-89
2022/06/25 07:46:41;;;;;;;18.92;16.97;;;;;;;22.40;100.00;100702.45;1699406;82;21581;-89
2022/06/25 07:49:09;;;;;;;20.12;18.07;;;;;;;22.46;100.00;100695.56;1699510;83;20971;-89
2022/06/25 07:54:30;;;;;;;20.23;18.35;;;;;;;22.41;100.00;100698.79;1706634;81;21577;-89
2022/06/25 07:56:58;;;;;;;19.27;17.35;;;;;;;22.33;100.00;100699.70;1729770;81;21007;-89
2022/06/25 07:59:25;;;;;;;19.70;17.70;;;;;;;22.21;100.00;100705.22;1731575;81;21101;-89
2022/06/25 08:01:52;;;;;;;19.27;17.42;;;;;;;22.11;100.00;100706.03;1725881;81;21746;-89
2022/06/25 08:04:19;;;;;;;18.52;16.73;;;;;;;22.17;100.00;100707.44;1729392;81;21154;-91
2022/06/25 08:06:47;;;;;;;17.27;15.72;;;;;;;22.34;100.00;100702.67;1730284;81;21042;-89
2022/06/25 08:09:15;;;;;;;19.62;17.62;;;;;;;22.54;100.00;100702.06;1729650;81;21121;-90
2022/06/25 08:11:43;;;;;;;20.10;18.10;;;;;;;22.76;100.00;100705.46;1727287;82;21158;-90
2022/06/25 08:14:10;;;;;;;19.20;17.37;;;;;;;22.89;100.00;100706.06;1764391;81;21270;-88
2022/06/25 08:16:38;;;;;;;18.60;16.87;;;;;;;22.97;100.00;100703.25;1765505;80;21108;-89
2022/06/25 08:19:05;;;;;;;18.02;16.32;;;;;;;23.03;100.00;100704.31;1732045;80;21088;-89
2022/06/25 08:21:32;;;;;;;18.73;17.02;;;;;;;23.03;100.00;100687.05;1749354;81;21745;-90
2022/06/25 08:23:59;;;;;;;18.12;16.37;;;;;;;23.12;100.00;100690.35;1759608;80;21010;-89
2022/06/25 08:26:27;;;;;;;17.25;15.68;;;;;;;23.23;100.00;100691.16;1728997;82;21058;-90
2022/06/25 08:28:54;;;;;;;17.55;15.75;;;;;;;23.41;100.00;100687.16;1713440;82;22050;-91
2022/06/25 08:31:23;;;;;;;17.52;15.93;;;;;;;23.55;100.00;100694.15;1717580;82;21034;-90
2022/06/25 08:33:50;;;;;;;19.60;17.52;;;;;;;23.67;100.00;100693.58;1709149;82;21052;-90
2022/06/25 08:36:18;;;;;;;17.35;15.75;;;;;;;23.76;100.00;100685.22;1723967;81;21087;-90
2022/06/25 08:38:46;;;;;;;18.55;16.65;;;;;;;23.80;100.00;100677.66;1710395;82;21109;-92
2022/06/25 08:41:13;;;;;;;17.27;15.72;;;;;;;23.74;100.00;100676.61;1676007;85;21863;-91
2022/06/25 08:43:41;;;;;;;17.30;15.70;;;;;;;23.75;100.00;100680.11;1676106;85;21078;-91
2022/06/25 08:46:08;;;;;;;16.87;15.18;;;;;;;23.73;100.00;100678.96;1706891;82;21061;-90
2022/06/25 08:48:37;;;;;;;16.77;15.28;;;;;;;23.77;100.00;100678.05;1702460;82;21069;-92
2022/06/25 08:51:05;;;;;;;15.32;13.62;;;;;;;23.89;100.00;100683.59;1691365;84;21077;-91
2022/06/25 08:53:34;;;;;;;15.70;14.25;;;;;;;24.01;100.00;100678.03;1691306;83;22389;-89
2022/06/25 08:56:02;;;;;;;16.50;15.05;;;;;;;24.07;100.00;100676.41;1691271;83;21085;-93
2022/06/25 08:58:30;;;;;;;15.43;13.55;;;;;;;24.04;100.00;100674.95;1720641;82;21025;-92
2022/06/25 09:00:58;;;;;;;15.50;14.03;;;;;;;23.98;100.00;100679.75;1720546;82;21026;-94
2022/06/25 09:03:27;;;;;;;15.32;13.45;;;;;;;23.92;100.00;100669.90;1722022;83;21016;-90
2022/06/25 09:05:54;;;;;;;14.20;12.95;;;;;;;23.82;100.00;100670.30;1719819;82;21798;-92
2022/06/25 09:08:22;;;;;;;14.10;12.88;;;;;;;23.73;100.00;100678.16;1737315;82;21050;-95
2022/06/25 09:10:55;;;;;;;13.08;11.97;;;;;;;23.65;100.00;100685.79;1720580;82;21063;-94
2022/06/25 09:13:25;;;;;;;12.93;11.83;;;;;;;23.78;100.00;100686.33;1721678;83;21025;-91
2022/06/25 09:15:52;;;;;;;12.10;10.80;;;;;;;24.04;100.00;100696.22;1720646;82;21046;-91
2022/06/25 09:18:20;;;;;;;11.63;10.53;;;;;;;24.26;100.00;100687.55;1720520;82;21782;-93
2022/06/25 09:21:05;;;;;;;11.08;10.08;;;;;;;24.40;100.00;100688.37;1660051;84;21027;-90
2022/06/25 09:23:38;;;;;;;12.37;11.18;;;;;;;24.53;100.00;100689.38;1616661;87;22105;-95
2022/06/25 09:26:12;;;;;;;11.40;10.20;;;;;;;24.64;100.00;100691.42;1680692;84;21806;-90
2022/06/25 09:28:44;;;;;;;10.30;9.33;;;;;;;24.56;100.00;100689.78;1733971;82;21046;-89
2022/06/25 09:31:14;;;;;;;9.98;9.18;;;;;;;24.39;100.00;100680.61;1759380;81;21317;-94
2022/06/25 09:33:41;;;;;;;10.58;9.53;;;;;;;24.32;100.00;100682.42;1754975;81;21050;-90
2022/06/25 09:36:10;;;;;;;10.32;9.33;;;;;;;24.44;100.00;100682.66;1759559;81;21053;-90
2022/06/25 09:38:50;;;;;;;9.90;8.90;;;;;;;24.64;100.00;100675.95;1760093;81;21007;-90
2022/06/25 09:41:17;;;;;;;9.70;8.65;;;;;;;24.75;100.00;100678.55;1737487;81;21087;-90
2022/06/25 09:43:47;;;;;;;9.28;8.38;;;;;;;24.70;100.00;100679.97;1722196;82;21294;-92
2022/06/25 09:46:15;;;;;;;9.18;8.48;;;;;;;24.50;100.00;100677.30;1735079;80;21003;-90
2022/06/25 09:52:14;;;;;;;8.98;8.08;;;;;;;24.34;100.00;100673.73;1749842;82;21546;-91
2022/06/25 09:54:41;;;;;;;8.00;7.03;;;;;;;24.50;100.00;100675.97;1762070;80;21053;-89
2022/06/25 09:57:37;;;;;;;8.78;7.47;;;;;;;24.60;100.00;100670.74;1758066;80;21226;-90
2022/06/25 10:00:10;;;;;;;8.50;7.47;;;;;;;24.65;100.00;100677.09;1766301;80;21018;-90
2022/06/25 10:02:45;;;;;;;7.78;6.97;;;;;;;24.68;100.00;100674.02;1767839;81;21109;-90
2022/06/25 10:08:48;;;;;;;6.72;6.17;;;;;;;25.18;100.00;100652.68;1735500;82;21073;-90
2022/06/25 10:11:21;;;;;;;9.00;7.58;;;;;;;25.18;100.00;100652.68;1696327;83;21567;-90
2022/06/25 10:13:50;;;;;;;6.85;6.00;;;;;;;25.32;100.00;100660.91;1716807;81;21011;-90
2022/06/25 10:16:25;;;;;;;6.12;5.53;;;;;;;25.45;100.00;100663.25;1749651;82;21038;-91
2022/06/25 10:19:03;;;;;;;5.95;5.33;;;;;;;25.56;100.00;100657.23;1742117;82;21003;-91
2022/06/25 10:21:30;;;;;;;6.58;5.97;;;;;;;25.56;100.00;100661.76;1725583;83;21009;-89
2022/06/25 10:24:04;;;;;;;6.62;4.45;;;;;;;25.55;100.00;100661.45;1750867;81;21776;-93
2022/06/25 10:26:37;;;;;;;5.83;4.92;;;;;;;25.60;100.00;100665.11;1723168;81;21052;-92
2022/06/25 10:32:46;;;;;;;6.55;5.00;;;;;;;25.64;100.00;100667.64;1723191;81;21071;-95
2022/06/25 10:39:56;;;;;;;4.28;3.92;;;;;;;25.69;100.00;100656.34;1728036;83;21063;-91
2022/06/25 10:46:46;;;;;;;;;;;;;;;25.43;100.00;100654.15;1727408;81;21078;-94
2022/06/25 10:49:50;;;;;;;6.10;4.03;;;;;;;25.30;100.00;100651.50;1723223;83;20253;-94
2022/06/25 10:52:18;;;;;;;4.83;4.37;;;;;;;25.31;100.00;100643.31;1722477;83;21082;-93
2022/06/25 10:54:48;;;;;;;4.97;4.58;;;;;;;25.56;100.00;100638.56;1721775;83;21110;-95
2022/06/25 10:58:22;;;;;;;4.23;3.93;;;;;;;25.75;100.00;100636.83;1699298;83;21105;-92
2022/06/25 11:01:01;;;;;;;4.62;4.22;;;;;;;25.83;100.00;100633.06;1720971;83;21319;-93
2022/06/25 11:03:37;;;;;;;3.75;3.47;;;;;;;25.97;100.00;100632.46;1721711;83;21049;-93
2022/06/25 11:10:52;;;;;;;7.92;3.98;;;;;;;26.43;100.00;100631.25;1723538;83;21161;-92
2022/06/25 11:18:33;;;;;;;5.33;3.83;;;;;;;26.70;100.00;100627.48;1723777;83;21130;-91
2022/06/25 11:32:26;;;;;;;4.35;3.92;;;;;;;26.74;100.00;100632.16;1658497;86;21061;-92
2022/06/25 11:35:01;;;;;;;4.37;3.98;;;;;;;26.72;100.00;100633.42;1702147;83;21554;-92
2022/06/25 11:37:30;;;;;;;3.83;3.22;;;;;;;26.65;100.00;100628.14;1702140;84;21040;-93
2022/06/25 11:40:15;;;;;;;4.45;3.35;;;;;;;26.54;100.00;100635.05;1692948;84;21042;-94
2022/06/25 11:42:43;;;;;;;4.53;2.83;;;;;;;26.48;100.00;100630.59;1699157;83;21166;-93
2022/06/25 11:45:11;;;;;;;4.15;2.95;;;;;;;26.50;100.00;100630.36;1693590;84;21055;-93
2022/06/25 11:51:25;;;;;;;5.37;3.00;;;;;;;26.86;100.00;100624.25;1691164;83;21037;-93
2022/06/25 11:53:55;;;;;;;3.55;3.00;;;;;;;27.18;100.00;100616.58;1697903;83;21524;-93
2022/06/25 11:56:22;;;;;;;7.10;3.23;;;;;;;27.47;100.00;100615.48;1690901;84;21124;-94
2022/06/25 12:03:16;;;;;;;5.83;3.10;;;;;;;28.00;93.14;100616.51;1705626;83;21536;-91
2022/06/25 12:05:44;;;;;;;3.77;3.10;;;;;;;28.10;82.98;100617.29;1687207;85;21563;-94
2022/06/25 12:08:49;;;;;;;4.03;2.80;;;;;;;28.06;75.45;100610.76;1691270;84;21081;-93
2022/06/25 12:11:20;;;;;;;4.10;3.20;;;;;;;27.98;78.37;100620.77;1706932;83;21001;-93
2022/06/25 12:13:49;;;;;;;3.47;2.87;;;;;;;27.84;75.05;100618.02;1683367;85;21022;-93
2022/06/25 12:20:25;;;;;;;3.08;2.87;;;;;;;27.28;75.58;100610.67;1695784;84;21055;-92